createdAt,value
2023-02-07T00:00:03.230Z,-1.13
2023-02-07T00:02:05.935Z,-1.10
2023-02-07T00:04:08.672Z,-1.08
2023-02-07T00:06:13.773Z,-1.27
2023-02-07T00:08:16.821Z,-1.34
2023-02-07T00:10:19.559Z,-1.28
2023-02-07T00:12:22.224Z,-1.29
2023-02-07T00:14:26.223Z,-1.26
2023-02-07T00:16:29.707Z,-1.24
2023-02-07T00:18:32.738Z,-1.36
2023-02-07T00:20:35.511Z,-1.33
2023-02-07T00:22:38.181Z,-1.33
2023-02-07T00:24:40.849Z,-1.42
2023-02-07T00:26:44.027Z,-1.34
2023-02-07T00:28:46.782Z,-1.36
2023-02-07T00:30:51.410Z,-1.48
2023-02-07T00:32:54.156Z,-1.57
2023-02-07T00:34:56.749Z,-1.60
2023-02-07T00:36:59.467Z,-1.61
2023-02-07T00:39:05.430Z,-1.54
2023-02-07T00:41:08.597Z,-1.49
2023-02-07T00:43:16.457Z,-1.57
2023-02-07T00:45:27.381Z,-1.49
2023-02-07T00:47:31.404Z,-1.55
2023-02-07T00:49:34.145Z,-1.59
2023-02-07T00:51:36.811Z,-1.62
2023-02-07T00:53:39.767Z,-1.63
2023-02-07T00:55:42.428Z,-1.58
2023-02-07T00:57:45.065Z,-1.61
2023-02-07T00:59:48.874Z,-1.62
2023-02-07T01:01:51.531Z,-1.69
2023-02-07T01:03:55.721Z,-1.69
2023-02-07T01:05:58.530Z,-1.65
2023-02-07T01:08:01.194Z,-1.73
2023-02-07T01:10:03.980Z,-1.64
2023-02-07T01:12:07.455Z,-1.75
2023-02-07T01:14:11.073Z,-1.78
2023-02-07T01:16:20.952Z,-1.81
2023-02-07T01:18:23.651Z,-1.78
2023-02-07T01:20:29.904Z,-1.85
2023-02-07T01:22:32.550Z,-1.85
2023-02-07T01:24:35.497Z,-1.85
2023-02-07T01:26:39.379Z,-1.84
2023-02-07T01:28:42.052Z,-2.00
2023-02-07T01:30:45.815Z,-1.98
2023-02-07T01:32:48.546Z,-2.03
2023-02-07T01:34:51.404Z,-2.08
2023-02-07T01:36:55.358Z,-2.09
2023-02-07T01:38:58.557Z,-2.00
2023-02-07T01:41:01.222Z,-2.04
2023-02-07T01:43:03.896Z,-2.06
2023-02-07T01:45:17.104Z,-2.18
2023-02-07T01:47:23.053Z,-2.15
2023-02-07T01:49:28.188Z,-2.09
2023-02-07T01:51:32.571Z,-2.21
2023-02-07T01:53:39.053Z,-2.19
2023-02-07T01:55:42.695Z,-2.26
2023-02-07T01:57:46.250Z,-2.26
2023-02-07T01:59:51.554Z,-2.27
2023-02-07T02:01:54.978Z,-2.29
2023-02-07T02:03:58.135Z,-2.28
2023-02-07T02:06:01.015Z,-2.32
2023-02-07T02:08:04.030Z,-2.23
2023-02-07T02:10:15.058Z,-2.35
2023-02-07T02:12:31.568Z,-2.37
2023-02-07T02:14:53.288Z,-2.37
2023-02-07T02:17:05.385Z,-2.39
2023-02-07T02:19:37.199Z,-2.42
2023-02-07T02:22:08.033Z,-2.40
2023-02-07T02:24:33.052Z,-2.41
2023-02-07T02:26:50.693Z,-2.45
2023-02-07T02:29:12.804Z,-2.61
2023-02-07T02:31:41.820Z,-2.61
2023-02-07T02:33:54.884Z,-2.59
2023-02-07T02:36:02.487Z,-2.61
2023-02-07T02:38:14.835Z,-2.49
2023-02-07T02:40:24.141Z,-2.69
2023-02-07T02:42:32.984Z,-2.72
2023-02-07T02:44:43.033Z,-2.63
2023-02-07T02:46:47.118Z,-2.54
2023-02-07T02:48:52.251Z,-2.65
2023-02-07T02:50:56.525Z,-2.61
2023-02-07T02:52:59.210Z,-2.64
2023-02-07T02:55:01.804Z,-2.67
2023-02-07T02:57:35.711Z,-2.61
2023-02-07T02:59:53.856Z,-2.69
2023-02-07T03:02:07.424Z,-2.64
2023-02-07T03:04:28.761Z,-2.70
2023-02-07T03:06:43.604Z,-2.59
2023-02-07T03:08:54.013Z,-2.74
2023-02-07T03:11:01.191Z,-2.67
2023-02-07T03:13:10.083Z,-2.79
2023-02-07T03:15:18.339Z,-2.74
2023-02-07T03:17:27.928Z,-2.78
2023-02-07T03:19:36.827Z,-2.79
2023-02-07T03:21:44.095Z,-2.75
2023-02-07T03:23:48.732Z,-2.72
2023-02-07T03:25:53.318Z,-2.70
2023-02-07T03:27:57.534Z,-2.73
2023-02-07T03:30:03.194Z,-2.78
2023-02-07T03:32:08.959Z,-2.86
2023-02-07T03:34:20.469Z,-2.80
2023-02-07T03:36:29.857Z,-2.66
2023-02-07T03:38:33.365Z,-2.84
2023-02-07T03:40:41.220Z,-2.87
2023-02-07T03:42:50.698Z,-2.90
2023-02-07T03:44:56.882Z,-2.84
2023-02-07T03:46:59.584Z,-2.78
2023-02-07T03:49:02.173Z,-2.82
2023-02-07T03:51:05.236Z,-2.85
2023-02-07T03:53:09.548Z,-2.88
2023-02-07T03:55:12.436Z,-2.79
2023-02-07T03:57:15.236Z,-2.80
2023-02-07T03:59:17.933Z,-2.80
2023-02-07T04:01:20.633Z,-2.85
2023-02-07T04:03:23.326Z,-2.85
2023-02-07T04:05:26.149Z,-2.83
2023-02-07T04:07:28.970Z,-2.81
2023-02-07T04:09:33.140Z,-2.84
2023-02-07T04:11:35.849Z,-2.79
2023-02-07T04:13:38.656Z,-2.84
2023-02-07T04:15:41.334Z,-2.77
2023-02-07T04:17:44.036Z,-2.79
2023-02-07T04:19:46.677Z,-2.84
2023-02-07T04:21:49.665Z,-2.80
2023-02-07T04:23:52.267Z,-2.76
2023-02-07T04:25:56.308Z,-2.82
2023-02-07T04:27:58.927Z,-2.95
2023-02-07T04:30:01.575Z,-2.93
2023-02-07T04:32:05.063Z,-2.90
2023-02-07T04:34:07.726Z,-2.88
2023-02-07T04:36:10.816Z,-2.90
2023-02-07T04:38:13.413Z,-2.95
2023-02-07T04:40:16.528Z,-2.94
2023-02-07T04:42:20.536Z,-2.90
2023-02-07T04:44:23.381Z,-2.94
2023-02-07T04:46:28.012Z,-2.97
2023-02-07T04:48:30.960Z,-2.91
2023-02-07T04:50:33.835Z,-2.94
2023-02-07T04:52:37.033Z,-2.78
2023-02-07T04:54:39.868Z,-2.90
2023-02-07T04:56:42.594Z,-2.88
2023-02-07T04:58:46.669Z,-2.81
2023-02-07T05:00:49.500Z,-2.92
2023-02-07T05:02:52.190Z,-3.01
2023-02-07T05:04:54.839Z,-3.07
2023-02-07T05:06:57.587Z,-3.18
2023-02-07T05:09:00.263Z,-3.20
2023-02-07T05:11:03.685Z,-3.21
2023-02-07T05:13:06.600Z,-3.18
2023-02-07T05:15:11.468Z,-3.11
2023-02-07T05:17:14.408Z,-3.21
2023-02-07T05:19:17.181Z,-3.26
2023-02-07T05:21:19.805Z,-3.15
2023-02-07T05:23:22.722Z,-3.19
2023-02-07T05:25:25.356Z,-3.19
2023-02-07T05:27:28.127Z,-3.25
2023-02-07T05:29:30.781Z,-3.23
2023-02-07T05:31:54.507Z,-3.35
2023-02-07T05:33:57.340Z,-3.35
2023-02-07T05:36:01.804Z,-3.24
2023-02-07T05:38:06.303Z,-3.36
2023-02-07T05:40:09.819Z,-3.33
2023-02-07T05:42:12.461Z,-3.34
2023-02-07T05:44:15.130Z,-3.34
2023-02-07T05:46:17.838Z,-3.34
2023-02-07T05:48:21.952Z,-3.31
2023-02-07T05:50:25.196Z,-3.28
2023-02-07T05:52:27.856Z,-3.29
2023-02-07T05:54:30.525Z,-3.18
2023-02-07T05:56:33.165Z,-3.17
2023-02-07T05:58:35.780Z,-3.35
2023-02-07T06:00:38.549Z,-3.40
2023-02-07T06:02:41.537Z,-3.40
2023-02-07T06:04:45.621Z,-3.35
2023-02-07T06:06:48.426Z,-3.34
2023-02-07T06:08:51.088Z,-3.29
2023-02-07T06:10:53.786Z,-3.36
2023-02-07T06:12:56.616Z,-3.43
2023-02-07T06:14:59.275Z,-3.28
2023-02-07T06:17:01.997Z,-3.32
2023-02-07T06:19:04.603Z,-3.35
2023-02-07T06:21:08.602Z,-3.36
2023-02-07T06:23:11.398Z,-3.34
2023-02-07T06:25:14.119Z,-3.33
2023-02-07T06:27:16.893Z,-3.24
2023-02-07T06:29:19.738Z,-3.31
2023-02-07T06:31:22.512Z,-3.22
2023-02-07T06:33:25.389Z,-3.37
2023-02-07T06:35:28.287Z,-3.27
2023-02-07T06:37:32.304Z,-3.38
2023-02-07T06:39:35.043Z,-3.56
2023-02-07T06:41:37.688Z,-3.59
2023-02-07T06:43:40.517Z,-3.57
2023-02-07T06:45:43.172Z,-3.58
2023-02-07T06:47:45.888Z,-3.65
2023-02-07T06:49:48.816Z,-3.60
2023-02-07T06:51:51.419Z,-3.66
2023-02-07T06:53:55.435Z,-3.65
2023-02-07T06:55:58.150Z,-3.36
2023-02-07T06:58:00.828Z,-3.48
2023-02-07T07:00:05.426Z,-3.50
2023-02-07T07:02:08.139Z,-3.48
2023-02-07T07:04:10.868Z,-3.31
2023-02-07T07:06:13.696Z,-3.40
2023-02-07T07:08:18.746Z,-3.30
2023-02-07T07:10:23.080Z,-3.52
2023-02-07T07:12:25.784Z,-3.53
2023-02-07T07:14:28.449Z,-3.51
2023-02-07T07:16:31.275Z,-3.29
2023-02-07T07:18:33.926Z,-3.25
2023-02-07T07:20:36.661Z,-3.03
2023-02-07T07:22:39.401Z,-2.96
2023-02-07T07:24:42.006Z,-3.18
2023-02-07T07:26:49.895Z,-3.30
2023-02-07T07:28:57.921Z,-3.25
2023-02-07T07:31:05.686Z,-3.02
2023-02-07T07:33:08.532Z,-2.89
2023-02-07T07:35:11.675Z,-2.75
2023-02-07T07:37:14.443Z,-2.67
2023-02-07T07:39:17.739Z,-3.02
2023-02-07T07:41:20.457Z,-2.75
2023-02-07T07:43:24.628Z,-2.75
2023-02-07T07:45:27.590Z,-2.93
2023-02-07T07:47:30.277Z,-2.83
2023-02-07T07:49:33.038Z,-2.97
2023-02-07T07:51:35.882Z,-2.74
2023-02-07T07:53:38.707Z,-2.90
2023-02-07T07:55:41.389Z,-2.81
2023-02-07T07:57:44.092Z,-2.66
2023-02-07T07:59:48.656Z,-2.65
2023-02-07T08:01:52.010Z,-2.48
2023-02-07T08:03:54.684Z,-2.27
2023-02-07T08:05:57.385Z,-1.60
2023-02-07T08:08:00.238Z,-1.06
2023-02-07T08:10:02.967Z,-0.72
2023-02-07T08:12:06.361Z,-1.21
2023-02-07T08:14:09.153Z,-0.89
2023-02-07T08:16:13.530Z,-0.32
2023-02-07T08:18:16.307Z,-1.05
2023-02-07T08:20:19.205Z,-0.97
2023-02-07T08:22:21.942Z,-1.21
2023-02-07T08:24:24.753Z,-1.21
2023-02-07T08:26:27.441Z,-1.17
2023-02-07T08:28:30.880Z,-0.70
2023-02-07T08:30:33.573Z,-0.54
2023-02-07T08:32:39.544Z,-0.50
2023-02-07T08:34:42.183Z,-0.24
2023-02-07T08:36:44.916Z,-0.26
2023-02-07T08:38:47.652Z,-0.13
2023-02-07T08:40:51.025Z,0.21
2023-02-07T08:42:53.863Z,-0.32
2023-02-07T08:44:56.839Z,-0.14
2023-02-07T08:46:59.672Z,0.17
2023-02-07T08:49:03.684Z,0.00
2023-02-07T08:51:07.749Z,-0.23
2023-02-07T08:53:11.001Z,0.40
2023-02-07T08:55:13.659Z,-0.21
2023-02-07T08:57:17.198Z,-0.32
2023-02-07T08:59:19.926Z,-0.49
2023-02-07T09:01:22.971Z,-0.17
2023-02-07T09:03:25.657Z,-0.21
2023-02-07T09:05:33.018Z,0.36
2023-02-07T09:07:35.900Z,0.33
2023-02-07T09:09:38.870Z,2.06
2023-02-07T09:11:41.667Z,1.64
2023-02-07T09:13:46.396Z,2.56
2023-02-07T09:15:54.566Z,3.39
2023-02-07T09:17:57.314Z,2.84
2023-02-07T09:19:59.962Z,2.61
2023-02-07T09:22:04.377Z,4.41
2023-02-07T09:24:07.528Z,2.10
2023-02-07T09:26:11.810Z,2.87
2023-02-07T09:28:15.103Z,4.48
2023-02-07T09:30:18.581Z,4.42
2023-02-07T09:32:21.247Z,4.14
2023-02-07T09:34:24.482Z,6.03
2023-02-07T09:36:28.516Z,3.86
2023-02-07T09:38:33.078Z,2.15
2023-02-07T09:40:37.206Z,3.31
2023-02-07T09:42:48.904Z,3.61
2023-02-07T09:45:00.061Z,2.89
2023-02-07T09:47:05.907Z,3.85
2023-02-07T09:49:16.796Z,3.99
2023-02-07T09:51:22.498Z,3.13
2023-02-07T09:53:29.314Z,4.61
2023-02-07T09:55:43.398Z,3.36
2023-02-07T09:57:50.282Z,4.20
2023-02-07T09:59:59.292Z,3.44
2023-02-07T10:02:14.574Z,4.39
2023-02-07T10:04:30.595Z,2.67
2023-02-07T10:06:36.027Z,2.83
2023-02-07T10:08:41.274Z,1.92
2023-02-07T10:10:47.710Z,2.23
2023-02-07T10:13:09.631Z,2.17
2023-02-07T10:15:28.421Z,2.21
2023-02-07T10:17:37.390Z,3.35
2023-02-07T10:19:52.088Z,2.84
2023-02-07T10:22:07.798Z,3.00
2023-02-07T10:24:41.737Z,3.03
2023-02-07T10:26:50.888Z,2.12
2023-02-07T10:29:35.313Z,1.98
2023-02-07T10:31:39.975Z,1.79
2023-02-07T10:33:48.685Z,1.93
2023-02-07T10:35:53.169Z,1.50
2023-02-07T10:38:00.468Z,1.17
2023-02-07T10:40:06.974Z,1.48
2023-02-07T10:42:15.446Z,1.27
2023-02-07T10:44:20.585Z,1.25
2023-02-07T10:46:27.313Z,1.24
2023-02-07T10:48:30.089Z,1.08
2023-02-07T10:50:32.877Z,1.99
2023-02-07T10:52:42.895Z,2.17
2023-02-07T10:54:52.779Z,3.00
2023-02-07T10:57:02.154Z,3.11
2023-02-07T10:59:06.797Z,2.82
2023-02-07T11:01:19.585Z,2.01
2023-02-07T11:03:23.773Z,2.15
2023-02-07T11:05:32.466Z,2.17
2023-02-07T11:07:47.216Z,1.90
2023-02-07T11:09:50.972Z,1.88
2023-02-07T11:11:55.161Z,2.00
2023-02-07T11:14:04.689Z,2.12
2023-02-07T11:16:10.577Z,2.11
2023-02-07T11:18:27.820Z,1.91
2023-02-07T11:20:33.341Z,1.70
2023-02-07T11:22:36.270Z,1.88
2023-02-07T11:24:39.255Z,1.90
2023-02-07T11:26:58.478Z,2.24
2023-02-07T11:29:09.056Z,2.13
2023-02-07T11:31:15.748Z,2.13
2023-02-07T11:33:23.420Z,2.21
2023-02-07T11:35:26.174Z,1.93
2023-02-07T11:37:32.303Z,1.72
2023-02-07T11:39:35.088Z,1.78
2023-02-07T11:41:39.886Z,1.74
2023-02-07T11:43:53.646Z,1.89
2023-02-07T11:46:02.359Z,2.49
2023-02-07T11:48:07.478Z,2.26
2023-02-07T11:50:19.629Z,2.35
2023-02-07T11:52:23.319Z,1.64
2023-02-07T11:54:27.136Z,1.64
2023-02-07T11:56:34.155Z,1.77
2023-02-07T11:58:37.879Z,1.94
2023-02-07T12:00:40.836Z,1.85
2023-02-07T12:02:50.242Z,1.77
2023-02-07T12:04:56.649Z,1.84
2023-02-07T12:07:03.987Z,1.47
2023-02-07T12:09:21.650Z,2.07
2023-02-07T12:11:28.044Z,1.90
2023-02-07T12:13:35.510Z,1.94
2023-02-07T12:15:43.491Z,2.36
2023-02-07T12:17:57.184Z,2.42
2023-02-07T12:20:09.855Z,1.91
2023-02-07T12:22:18.950Z,2.26
2023-02-07T12:24:26.137Z,2.45
2023-02-07T12:26:33.747Z,2.26
2023-02-07T12:28:44.981Z,2.37
2023-02-07T12:30:54.856Z,2.18
2023-02-07T12:33:05.092Z,2.44
2023-02-07T12:35:19.721Z,2.50
2023-02-07T12:37:27.551Z,2.30
2023-02-07T12:39:36.184Z,2.24
2023-02-07T12:41:45.401Z,2.51
2023-02-07T12:43:52.462Z,2.26
2023-02-07T12:46:19.393Z,2.66
2023-02-07T12:48:32.003Z,2.71
2023-02-07T12:50:54.375Z,2.86
2023-02-07T12:53:10.751Z,3.70
2023-02-07T12:55:26.174Z,4.64
2023-02-07T12:57:37.811Z,4.51
2023-02-07T12:59:52.107Z,3.63
2023-02-07T13:02:05.063Z,3.19
2023-02-07T13:04:30.963Z,4.35
2023-02-07T13:06:41.372Z,5.29
2023-02-07T13:08:54.162Z,5.94
2023-02-07T13:11:09.123Z,6.07
2023-02-07T13:13:23.384Z,4.75
2023-02-07T13:15:35.428Z,5.06
2023-02-07T13:17:48.322Z,4.35
2023-02-07T13:19:59.012Z,4.18
2023-02-07T13:22:08.810Z,5.16
2023-02-07T13:24:16.240Z,4.88
2023-02-07T13:26:21.314Z,4.54
2023-02-07T13:28:27.363Z,4.05
2023-02-07T13:30:31.447Z,3.28
2023-02-07T13:32:34.195Z,4.19
2023-02-07T13:34:41.283Z,4.97
2023-02-07T13:36:45.744Z,4.20
2023-02-07T13:39:03.370Z,3.83
2023-02-07T13:41:12.990Z,4.20
2023-02-07T13:43:24.060Z,4.08
2023-02-07T13:45:37.142Z,4.82
2023-02-07T13:48:02.494Z,4.44
2023-02-07T13:50:15.395Z,5.23
2023-02-07T13:52:27.348Z,5.56
2023-02-07T13:54:41.813Z,5.70
2023-02-07T13:57:14.805Z,5.30
2023-02-07T13:59:42.683Z,5.10
2023-02-07T14:01:54.220Z,5.04
2023-02-07T14:04:03.906Z,4.41
2023-02-07T14:06:22.169Z,4.97
2023-02-07T14:08:25.747Z,4.81
2023-02-07T14:10:51.534Z,4.81
2023-02-07T14:12:54.206Z,4.07
2023-02-07T14:15:17.820Z,4.71
2023-02-07T14:17:50.211Z,4.64
2023-02-07T14:19:55.342Z,3.71
2023-02-07T14:22:16.217Z,3.73
2023-02-07T14:24:32.552Z,3.43
2023-02-07T14:26:58.365Z,3.62
2023-02-07T14:29:34.557Z,3.54
2023-02-07T14:31:37.324Z,3.58
2023-02-07T14:33:40.700Z,3.76
2023-02-07T14:36:04.806Z,3.71
2023-02-07T14:38:22.238Z,3.27
2023-02-07T14:40:31.644Z,3.47
2023-02-07T14:42:37.429Z,3.21
2023-02-07T14:44:42.861Z,3.58
2023-02-07T14:46:51.760Z,3.75
2023-02-07T14:48:59.927Z,3.69
2023-02-07T14:51:03.548Z,3.16
2023-02-07T14:53:07.160Z,3.48
2023-02-07T14:55:18.587Z,3.61
2023-02-07T14:57:30.337Z,3.31
2023-02-07T14:59:40.069Z,3.11
2023-02-07T15:01:42.977Z,3.28
2023-02-07T15:03:45.687Z,3.19
2023-02-07T15:05:51.702Z,3.10
2023-02-07T15:08:08.506Z,3.36
2023-02-07T15:10:15.783Z,3.27
2023-02-07T15:12:27.208Z,2.97
2023-02-07T15:14:34.286Z,3.08
2023-02-07T15:16:41.685Z,2.92
2023-02-07T15:18:48.855Z,2.98
2023-02-07T15:20:54.176Z,2.93
2023-02-07T15:22:58.305Z,2.94
2023-02-07T15:25:02.203Z,2.88
2023-02-07T15:27:06.874Z,2.71
2023-02-07T15:29:21.920Z,2.61
2023-02-07T15:31:24.828Z,2.63
2023-02-07T15:33:36.524Z,2.70
2023-02-07T15:35:39.735Z,2.53
2023-02-07T15:37:42.463Z,2.50
2023-02-07T15:39:45.232Z,2.55
2023-02-07T15:41:49.549Z,2.48
2023-02-07T15:43:58.772Z,2.47
2023-02-07T15:46:07.620Z,2.54
2023-02-07T15:48:19.739Z,2.51
2023-02-07T15:50:25.188Z,2.53
2023-02-07T15:52:32.884Z,2.47
2023-02-07T15:54:40.073Z,2.35
2023-02-07T15:56:46.611Z,2.39
2023-02-07T15:58:50.144Z,2.31
2023-02-07T16:00:53.859Z,2.25
2023-02-07T16:03:00.270Z,2.23
2023-02-07T16:05:09.730Z,2.16
2023-02-07T16:07:14.630Z,2.04
2023-02-07T16:09:36.476Z,1.99
2023-02-07T16:11:41.104Z,2.05
2023-02-07T16:13:50.593Z,1.87
2023-02-07T16:15:56.252Z,1.81
2023-02-07T16:17:59.948Z,1.83
2023-02-07T16:20:02.642Z,1.71
2023-02-07T16:22:09.269Z,1.61
2023-02-07T16:24:18.112Z,1.51
2023-02-07T16:26:27.621Z,1.47
2023-02-07T16:28:30.414Z,1.32
2023-02-07T16:30:37.152Z,1.28
2023-02-07T16:32:39.935Z,1.29
2023-02-07T16:34:58.568Z,1.25
2023-02-07T16:37:02.382Z,1.08
2023-02-07T16:39:05.321Z,1.06
2023-02-07T16:41:22.700Z,1.06
2023-02-07T16:43:36.762Z,1.14
2023-02-07T16:45:40.204Z,0.94
2023-02-07T16:47:43.100Z,0.92
2023-02-07T16:49:46.734Z,0.87
2023-02-07T16:51:49.674Z,0.90
2023-02-07T16:53:52.728Z,0.91
2023-02-07T16:55:58.213Z,0.69
2023-02-07T16:58:05.333Z,0.73
2023-02-07T17:00:10.010Z,0.65
2023-02-07T17:02:15.557Z,0.54
2023-02-07T17:04:18.426Z,0.55
2023-02-07T17:06:23.011Z,0.48
2023-02-07T17:08:30.011Z,0.54
2023-02-07T17:10:33.611Z,0.46
2023-02-07T17:12:36.459Z,0.48
2023-02-07T17:14:40.437Z,0.42
2023-02-07T17:16:43.334Z,0.42
2023-02-07T17:18:45.992Z,0.34
2023-02-07T17:20:48.901Z,0.29
2023-02-07T17:22:51.958Z,0.18
2023-02-07T17:24:54.713Z,0.17
2023-02-07T17:26:57.452Z,0.12
2023-02-07T17:29:00.107Z,0.12
2023-02-07T17:31:04.130Z,0.10
2023-02-07T17:33:07.502Z,0.04
2023-02-07T17:35:10.523Z,0.01
2023-02-07T17:37:13.252Z,0.05
2023-02-07T17:39:17.399Z,0.14
2023-02-07T17:41:21.355Z,-0.05
2023-02-07T17:43:24.064Z,-0.11
2023-02-07T17:45:27.968Z,-0.11
2023-02-07T17:47:32.032Z,-0.12
2023-02-07T17:49:34.707Z,-0.11
2023-02-07T17:51:37.330Z,-0.22
2023-02-07T17:53:39.931Z,-0.26
2023-02-07T17:55:42.544Z,-0.24
2023-02-07T17:57:45.310Z,-0.34
2023-02-07T17:59:47.885Z,-0.36
2023-02-07T18:01:50.679Z,-0.34
2023-02-07T18:03:55.790Z,-0.29
2023-02-07T18:05:58.548Z,-0.38
2023-02-07T18:08:01.457Z,-0.43
2023-02-07T18:10:06.577Z,-0.43
2023-02-07T18:12:09.249Z,-0.46
2023-02-07T18:14:12.051Z,-0.44
2023-02-07T18:16:16.034Z,-0.53
2023-02-07T18:18:18.781Z,-0.53
2023-02-07T18:20:25.113Z,-0.51
2023-02-07T18:22:27.903Z,-0.54
2023-02-07T18:24:30.964Z,-0.55
2023-02-07T18:26:33.815Z,-0.57
2023-02-07T18:28:36.534Z,-0.60
2023-02-07T18:30:40.559Z,-0.64
2023-02-07T18:32:43.601Z,-0.68
2023-02-07T18:34:46.228Z,-0.75
2023-02-07T18:36:50.316Z,-0.68
2023-02-07T18:38:53.340Z,-0.76
2023-02-07T18:40:56.022Z,-0.80
2023-02-07T18:42:58.811Z,-0.81
2023-02-07T18:45:01.592Z,-0.81
2023-02-07T18:47:04.368Z,-0.78
2023-02-07T18:49:07.060Z,-0.72
2023-02-07T18:51:11.458Z,-0.78
2023-02-07T18:53:15.390Z,-0.84
2023-02-07T18:55:18.514Z,-0.87
2023-02-07T18:57:21.153Z,-0.79
2023-02-07T18:59:25.236Z,-0.90
2023-02-07T19:01:30.456Z,-0.83
2023-02-07T19:03:33.840Z,-0.82
2023-02-07T19:05:37.460Z,-0.86
2023-02-07T19:07:40.332Z,-0.87
2023-02-07T19:09:44.508Z,-0.81
2023-02-07T19:11:49.893Z,-0.92
2023-02-07T19:13:52.573Z,-0.88
2023-02-07T19:15:55.604Z,-0.89
2023-02-07T19:17:58.226Z,-0.88
2023-02-07T19:20:00.953Z,-0.88
2023-02-07T19:22:03.977Z,-0.85
2023-02-07T19:24:09.428Z,-0.89
2023-02-07T19:26:13.535Z,-0.88
2023-02-07T19:28:16.421Z,-0.95
2023-02-07T19:30:19.133Z,-0.98
2023-02-07T19:32:21.721Z,-1.00
2023-02-07T19:34:24.405Z,-1.02
2023-02-07T19:36:28.188Z,-1.07
2023-02-07T19:38:30.763Z,-1.07
2023-02-07T19:40:33.405Z,-1.07
2023-02-07T19:42:37.416Z,-1.00
2023-02-07T19:44:40.082Z,-1.01
2023-02-07T19:46:44.082Z,-1.06
2023-02-07T19:48:48.125Z,-1.10
2023-02-07T19:50:58.811Z,-1.02
2023-02-07T19:53:01.410Z,-1.03
2023-02-07T19:55:04.345Z,-1.03
2023-02-07T19:57:07.005Z,-0.96
2023-02-07T19:59:11.390Z,-0.97
2023-02-07T20:01:15.010Z,-0.94
2023-02-07T20:03:17.621Z,-1.01
2023-02-07T20:05:20.271Z,-0.94
2023-02-07T20:07:23.223Z,-0.99
2023-02-07T20:09:25.902Z,-1.09
2023-02-07T20:11:29.130Z,-1.11
2023-02-07T20:13:33.728Z,-1.04
2023-02-07T20:15:40.359Z,-1.15
2023-02-07T20:17:43.641Z,-1.08
2023-02-07T20:19:46.309Z,-1.10
2023-02-07T20:21:48.917Z,-1.13
2023-02-07T20:23:52.982Z,-1.11
2023-02-07T20:25:55.552Z,-1.09
2023-02-07T20:27:58.256Z,-1.10
2023-02-07T20:30:00.832Z,-1.10
2023-02-07T20:32:04.804Z,-1.07
2023-02-07T20:34:08.115Z,-1.09
2023-02-07T20:36:11.995Z,-1.09
2023-02-07T20:38:14.678Z,-1.09
2023-02-07T20:40:17.428Z,-1.12
2023-02-07T20:42:20.166Z,-1.09
2023-02-07T20:44:26.421Z,-1.08
2023-02-07T20:46:30.476Z,-1.04
2023-02-07T20:48:34.568Z,-1.11
2023-02-07T20:50:37.479Z,-1.07
2023-02-07T20:52:40.332Z,-1.16
2023-02-07T20:54:43.171Z,-1.18
2023-02-07T20:56:46.008Z,-1.08
2023-02-07T20:58:48.736Z,-1.16
2023-02-07T21:00:51.522Z,-1.19
2023-02-07T21:02:54.098Z,-1.20
2023-02-07T21:04:58.150Z,-1.18
2023-02-07T21:07:01.005Z,-1.21
2023-02-07T21:09:06.303Z,-1.16
2023-02-07T21:11:09.911Z,-1.23
2023-02-07T21:13:13.672Z,-1.26
2023-02-07T21:15:16.343Z,-1.25
2023-02-07T21:17:19.008Z,-1.22
2023-02-07T21:19:22.548Z,-1.24
2023-02-07T21:21:26.984Z,-1.34
2023-02-07T21:23:29.612Z,-1.31
2023-02-07T21:25:32.751Z,-1.28
2023-02-07T21:27:35.459Z,-1.31
2023-02-07T21:29:38.687Z,-1.32
2023-02-07T21:31:41.666Z,-1.30
2023-02-07T21:33:45.130Z,-1.22
2023-02-07T21:35:48.632Z,-1.38
2023-02-07T21:37:52.631Z,-1.39
2023-02-07T21:39:55.802Z,-1.36
2023-02-07T21:41:58.886Z,-1.43
2023-02-07T21:44:02.313Z,-1.42
2023-02-07T21:46:06.778Z,-1.49
2023-02-07T21:48:09.516Z,-1.48
2023-02-07T21:50:12.268Z,-1.52
2023-02-07T21:52:16.306Z,-1.62
2023-02-07T21:54:20.485Z,-1.63
2023-02-07T21:56:25.913Z,-1.58
2023-02-07T21:58:28.707Z,-1.59
2023-02-07T22:00:31.382Z,-1.60
2023-02-07T22:02:34.403Z,-1.62
2023-02-07T22:04:37.084Z,-1.56
2023-02-07T22:06:42.166Z,-1.56
2023-02-07T22:08:48.377Z,-1.54
2023-02-07T22:10:52.361Z,-1.57
2023-02-07T22:12:55.064Z,-1.55
2023-02-07T22:14:57.655Z,-1.66
2023-02-07T22:17:00.363Z,-1.56
2023-02-07T22:19:05.242Z,-1.60
2023-02-07T22:21:10.279Z,-1.66
2023-02-07T22:23:13.032Z,-1.61
2023-02-07T22:25:15.928Z,-1.70
2023-02-07T22:27:19.922Z,-1.72
2023-02-07T22:29:22.542Z,-1.75
2023-02-07T22:31:27.355Z,-1.76
2023-02-07T22:33:30.061Z,-1.79
2023-02-07T22:35:36.743Z,-1.84
2023-02-07T22:37:39.385Z,-1.82
2023-02-07T22:39:41.996Z,-1.82
2023-02-07T22:41:44.907Z,-1.88
2023-02-07T22:43:50.691Z,-1.83
2023-02-07T22:45:53.321Z,-1.84
2023-02-07T22:47:56.117Z,-1.93
2023-02-07T22:49:58.698Z,-1.98
2023-02-07T22:52:01.348Z,-1.93
2023-02-07T22:54:06.877Z,-2.00
2023-02-07T22:56:10.158Z,-2.04
2023-02-07T22:58:15.517Z,-2.05
2023-02-07T23:00:20.534Z,-1.88
2023-02-07T23:02:23.182Z,-1.97
2023-02-07T23:04:25.912Z,-1.98
2023-02-07T23:06:28.703Z,-2.05
2023-02-07T23:08:31.381Z,-2.07
2023-02-07T23:10:33.982Z,-2.06
2023-02-07T23:12:36.598Z,-2.10
2023-02-07T23:14:39.487Z,-2.05
2023-02-07T23:16:43.873Z,-1.99
2023-02-07T23:18:46.645Z,-1.97
2023-02-07T23:20:49.243Z,-1.92
2023-02-07T23:22:52.076Z,-1.97
2023-02-07T23:24:56.153Z,-2.00
2023-02-07T23:26:58.922Z,-1.91
2023-02-07T23:29:01.566Z,-1.90
2023-02-07T23:31:05.802Z,-1.99
2023-02-07T23:33:11.568Z,-2.09
2023-02-07T23:35:14.213Z,-2.11
2023-02-07T23:37:16.928Z,-2.13
2023-02-07T23:39:19.989Z,-2.21
2023-02-07T23:41:22.940Z,-2.25
2023-02-07T23:43:26.462Z,-2.13
2023-02-07T23:45:29.148Z,-2.32
2023-02-07T23:47:31.782Z,-2.29
2023-02-07T23:49:35.890Z,-2.32
2023-02-07T23:51:39.410Z,-2.40
2023-02-07T23:53:42.990Z,-2.36
2023-02-07T23:55:45.589Z,-2.28
2023-02-07T23:57:48.531Z,-2.34
2023-02-07T23:59:51.168Z,-2.32
